sensor_id;sensor_type;location;lat;lon;timestamp;pressure;altitude;pressure_sealevel;temperature;humidity
21276;BME280;36472;52.170;20.884;2023-08-31T00:00:33;99515.59;;;18.01;100.00
21276;BME280;36472;52.170;20.884;2023-08-31T00:03:23;99513.25;;;17.98;100.00
21276;BME280;36472;52.170;20.884;2023-08-31T00:05:52;99513.44;;;17.96;100.00
21276;BME280;36472;52.170;20.884;2023-08-31T00:08:21;99512.78;;;17.94;100.00
21276;BME280;36472;52.170;20.884;2023-08-31T00:10:58;99509.63;;;17.90;100.00
21276;BME280;36472;52.170;20.884;2023-08-31T00:13:28;99516.94;;;17.88;100.00
21276;BME280;36472;52.170;20.884;2023-08-31T00:15:58;99518.91;;;17.86;100.00
21276;BME280;36472;52.170;20.884;2023-08-31T00:18:28;99520.72;;;17.86;100.00
21276;BME280;36472;52.170;20.884;2023-08-31T00:20:57;99513.59;;;17.86;100.00
21276;BME280;36472;52.170;20.884;2023-08-31T00:23:26;99515.28;;;17.87;100.00
21276;BME280;36472;52.170;20.884;2023-08-31T00:25:56;99514.28;;;17.88;100.00
21276;BME280;36472;52.170;20.884;2023-08-31T00:28:25;99507.78;;;17.83;100.00
21276;BME280;36472;52.170;20.884;2023-08-31T00:30:55;99512.09;;;17.75;100.00
21276;BME280;36472;52.170;20.884;2023-08-31T00:33:27;99511.28;;;17.75;100.00
21276;BME280;36472;52.170;20.884;2023-08-31T00:35:59;99515.41;;;17.77;100.00
21276;BME280;36472;52.170;20.884;2023-08-31T00:38:31;99520.75;;;17.77;100.00
21276;BME280;36472;52.170;20.884;2023-08-31T00:41:01;99510.97;;;17.78;100.00
21276;BME280;36472;52.170;20.884;2023-08-31T00:43:30;99513.94;;;17.75;100.00
21276;BME280;36472;52.170;20.884;2023-08-31T00:45:59;99511.63;;;17.72;100.00
21276;BME280;36472;52.170;20.884;2023-08-31T00:48:29;99518.25;;;17.76;100.00
21276;BME280;36472;52.170;20.884;2023-08-31T00:50:59;99516.59;;;17.75;100.00
21276;BME280;36472;52.170;20.884;2023-08-31T00:53:30;99506.78;;;17.75;100.00
21276;BME280;36472;52.170;20.884;2023-08-31T00:56:00;99504.13;;;17.75;100.00
21276;BME280;36472;52.170;20.884;2023-08-31T00:58:32;99499.16;;;17.72;100.00
21276;BME280;36472;52.170;20.884;2023-08-31T01:01:11;99509.63;;;17.66;100.00
21276;BME280;36472;52.170;20.884;2023-08-31T01:03:55;99510.28;;;17.68;100.00
21276;BME280;36472;52.170;20.884;2023-08-31T01:06:45;99522.25;;;17.72;100.00
21276;BME280;36472;52.170;20.884;2023-08-31T01:09:29;99517.75;;;17.72;100.00
21276;BME280;36472;52.170;20.884;2023-08-31T01:12:05;99520.56;;;17.71;100.00
21276;BME280;36472;52.170;20.884;2023-08-31T01:14:42;99515.91;;;17.73;100.00
21276;BME280;36472;52.170;20.884;2023-08-31T01:17:14;99517.09;;;17.70;100.00
21276;BME280;36472;52.170;20.884;2023-08-31T01:19:49;99526.09;;;17.61;100.00
21276;BME280;36472;52.170;20.884;2023-08-31T01:22:30;99529.56;;;17.62;100.00
21276;BME280;36472;52.170;20.884;2023-08-31T01:25:02;99527.72;;;17.62;100.00
21276;BME280;36472;52.170;20.884;2023-08-31T01:27:32;99522.25;;;17.64;100.00
21276;BME280;36472;52.170;20.884;2023-08-31T01:30:01;99525.22;;;17.61;100.00
21276;BME280;36472;52.170;20.884;2023-08-31T01:32:33;99519.25;;;17.58;100.00
21276;BME280;36472;52.170;20.884;2023-08-31T01:35:05;99521.91;;;17.58;100.00
21276;BME280;36472;52.170;20.884;2023-08-31T01:37:47;99511.13;;;17.60;100.00
21276;BME280;36472;52.170;20.884;2023-08-31T01:40:26;99517.25;;;17.52;100.00
21276;BME280;36472;52.170;20.884;2023-08-31T01:42:57;99526.25;;;17.51;100.00
21276;BME280;36472;52.170;20.884;2023-08-31T01:45:27;99520.13;;;17.51;100.00
21276;BME280;36472;52.170;20.884;2023-08-31T01:47:56;99522.25;;;17.47;100.00
21276;BME280;36472;52.170;20.884;2023-08-31T01:50:26;99523.91;;;17.48;100.00
21276;BME280;36472;52.170;20.884;2023-08-31T01:52:55;99526.25;;;17.51;100.00
21276;BME280;36472;52.170;20.884;2023-08-31T01:55:25;99534.38;;;17.58;100.00
21276;BME280;36472;52.170;20.884;2023-08-31T01:57:54;99523.44;;;17.53;100.00
21276;BME280;36472;52.170;20.884;2023-08-31T02:00:27;99526.41;;;17.58;100.00
21276;BME280;36472;52.170;20.884;2023-08-31T02:02:56;99530.22;;;17.55;100.00
21276;BME280;36472;52.170;20.884;2023-08-31T02:05:25;99525.41;;;17.51;100.00
21276;BME280;36472;52.170;20.884;2023-08-31T02:07:55;99525.41;;;17.51;100.00
21276;BME280;36472;52.170;20.884;2023-08-31T02:10:25;99532.69;;;17.49;100.00
21276;BME280;36472;52.170;20.884;2023-08-31T02:12:55;99530.72;;;17.51;100.00
21276;BME280;36472;52.170;20.884;2023-08-31T02:15:24;99534.06;;;17.53;100.00
21276;BME280;36472;52.170;20.884;2023-08-31T02:17:53;99532.88;;;17.47;100.00
21276;BME280;36472;52.170;20.884;2023-08-31T02:20:22;99524.25;;;17.45;100.00
21276;BME280;36472;52.170;20.884;2023-08-31T02:22:52;99535.03;;;17.52;100.00
21276;BME280;36472;52.170;20.884;2023-08-31T02:25:21;99525.41;;;17.51;100.00
21276;BME280;36472;52.170;20.884;2023-08-31T02:27:52;99537.53;;;17.53;100.00
21276;BME280;36472;52.170;20.884;2023-08-31T02:30:21;99538.50;;;17.52;100.00
21276;BME280;36472;52.170;20.884;2023-08-31T02:32:51;99544.34;;;17.56;100.00
21276;BME280;36472;52.170;20.884;2023-08-31T02:35:20;99540.69;;;17.57;100.00
21276;BME280;36472;52.170;20.884;2023-08-31T02:37:49;99538.69;;;17.59;100.00
21276;BME280;36472;52.170;20.884;2023-08-31T02:40:18;99543.16;;;17.58;100.00
21276;BME280;36472;52.170;20.884;2023-08-31T02:42:52;99539.03;;;17.56;100.00
21276;BME280;36472;52.170;20.884;2023-08-31T02:45:21;99542.50;;;17.56;100.00
21276;BME280;36472;52.170;20.884;2023-08-31T02:47:51;99540.34;;;17.60;100.00
21276;BME280;36472;52.170;20.884;2023-08-31T02:50:20;99540.69;;;17.57;100.00
21276;BME280;36472;52.170;20.884;2023-08-31T02:52:49;99541.16;;;17.52;100.00
21276;BME280;36472;52.170;20.884;2023-08-31T02:55:18;99541.34;;;17.59;100.00
21276;BME280;36472;52.170;20.884;2023-08-31T02:57:49;99534.72;;;17.55;100.00
21276;BME280;36472;52.170;20.884;2023-08-31T03:00:19;99541.84;;;17.54;100.00
21276;BME280;36472;52.170;20.884;2023-08-31T03:02:49;99540.50;;;17.50;100.00
21276;BME280;36472;52.170;20.884;2023-08-31T03:05:20;99544.66;;;17.45;100.00
21276;BME280;36472;52.170;20.884;2023-08-31T03:07:49;99543.69;;;17.46;100.00
21276;BME280;36472;52.170;20.884;2023-08-31T03:10:20;99550.81;;;17.45;100.00
21276;BME280;36472;52.170;20.884;2023-08-31T03:12:50;99549.81;;;17.38;100.00
21276;BME280;36472;52.170;20.884;2023-08-31T03:15:20;99560.75;;;17.35;100.00
21276;BME280;36472;52.170;20.884;2023-08-31T03:17:50;99562.09;;;17.31;100.00
21276;BME280;36472;52.170;20.884;2023-08-31T03:20:21;99564.25;;;17.35;100.00
21276;BME280;36472;52.170;20.884;2023-08-31T03:22:51;99555.28;;;17.36;100.00
21276;BME280;36472;52.170;20.884;2023-08-31T03:25:20;99563.41;;;17.35;100.00
21276;BME280;36472;52.170;20.884;2023-08-31T03:27:49;99553.44;;;17.37;100.00
21276;BME280;36472;52.170;20.884;2023-08-31T03:30:20;99556.78;;;17.39;100.00
21276;BME280;36472;52.170;20.884;2023-08-31T03:32:50;99552.63;;;17.36;100.00
21276;BME280;36472;52.170;20.884;2023-08-31T03:35:19;99559.78;;;17.36;100.00
21276;BME280;36472;52.170;20.884;2023-08-31T03:37:49;99559.09;;;17.34;100.00
21276;BME280;36472;52.170;20.884;2023-08-31T03:40:18;99564.91;;;17.37;100.00
21276;BME280;36472;52.170;20.884;2023-08-31T03:42:47;99565.75;;;17.38;100.00
21276;BME280;36472;52.170;20.884;2023-08-31T03:45:16;99565.56;;;17.39;100.00
21276;BME280;36472;52.170;20.884;2023-08-31T03:47:47;99563.41;;;17.35;100.00
21276;BME280;36472;52.170;20.884;2023-08-31T03:50:16;99563.06;;;17.30;100.00
21276;BME280;36472;52.170;20.884;2023-08-31T03:52:46;99577.00;;;17.32;100.00
21276;BME280;36472;52.170;20.884;2023-08-31T03:55:15;99576.84;;;17.33;100.00
21276;BME280;36472;52.170;20.884;2023-08-31T03:57:45;99581.16;;;17.34;100.00
21276;BME280;36472;52.170;20.884;2023-08-31T04:00:20;99574.34;;;17.32;100.00
21276;BME280;36472;52.170;20.884;2023-08-31T04:02:51;99574.53;;;17.30;100.00
21276;BME280;36472;52.170;20.884;2023-08-31T04:05:22;99571.69;;;17.32;100.00
21276;BME280;36472;52.170;20.884;2023-08-31T04:07:52;99575.69;;;17.36;100.00
21276;BME280;36472;52.170;20.884;2023-08-31T04:10:21;99569.06;;;17.40;100.00
21276;BME280;36472;52.170;20.884;2023-08-31T04:12:53;99574.03;;;17.35;100.00
21276;BME280;36472;52.170;20.884;2023-08-31T04:15:22;99579.84;;;17.38;100.00
21276;BME280;36472;52.170;20.884;2023-08-31T04:17:52;99580.19;;;17.35;100.00
21276;BME280;36472;52.170;20.884;2023-08-31T04:20:21;99578.69;;;17.33;100.00
21276;BME280;36472;52.170;20.884;2023-08-31T04:22:50;99587.97;;;17.29;100.00
21276;BME280;36472;52.170;20.884;2023-08-31T04:25:19;99586.78;;;17.23;100.00
21276;BME280;36472;52.170;20.884;2023-08-31T04:27:48;99580.66;;;17.23;100.00
21276;BME280;36472;52.170;20.884;2023-08-31T04:30:17;99588.47;;;17.24;100.00
21276;BME280;36472;52.170;20.884;2023-08-31T04:32:46;99584.81;;;17.25;100.00
21276;BME280;36472;52.170;20.884;2023-08-31T04:35:17;99589.28;;;17.25;100.00
21276;BME280;36472;52.170;20.884;2023-08-31T04:37:46;99582.66;;;17.20;100.00
21276;BME280;36472;52.170;20.884;2023-08-31T04:40:15;99580.50;;;17.24;100.00
21276;BME280;36472;52.170;20.884;2023-08-31T04:42:44;99585.66;;;17.26;100.00
21276;BME280;36472;52.170;20.884;2023-08-31T04:45:13;99581.97;;;17.27;100.00
21276;BME280;36472;52.170;20.884;2023-08-31T04:47:43;99583.81;;;17.34;100.00
21276;BME280;36472;52.170;20.884;2023-08-31T04:50:12;99592.28;;;17.38;100.00
21276;BME280;36472;52.170;20.884;2023-08-31T04:52:43;99594.63;;;17.33;100.00
21276;BME280;36472;52.170;20.884;2023-08-31T04:55:13;99600.25;;;17.38;100.00
21276;BME280;36472;52.170;20.884;2023-08-31T04:57:42;99597.63;;;17.46;100.00
21276;BME280;36472;52.170;20.884;2023-08-31T05:00:12;99601.59;;;17.42;100.00
21276;BME280;36472;52.170;20.884;2023-08-31T05:02:42;99614.53;;;17.45;100.00
21276;BME280;36472;52.170;20.884;2023-08-31T05:05:12;99617.69;;;17.49;100.00
21276;BME280;36472;52.170;20.884;2023-08-31T05:07:42;99610.22;;;17.52;100.00
21276;BME280;36472;52.170;20.884;2023-08-31T05:10:11;99615.56;;;17.61;100.00
21276;BME280;36472;52.170;20.884;2023-08-31T05:12:40;99615.22;;;17.64;100.00
21276;BME280;36472;52.170;20.884;2023-08-31T05:15:10;99622.22;;;17.65;100.00
21276;BME280;36472;52.170;20.884;2023-08-31T05:17:39;99623.69;;;17.67;100.00
21276;BME280;36472;52.170;20.884;2023-08-31T05:20:09;99626.69;;;17.72;100.00
21276;BME280;36472;52.170;20.884;2023-08-31T05:22:39;99629.84;;;17.76;100.00
21276;BME280;36472;52.170;20.884;2023-08-31T05:25:09;99619.91;;;17.70;99.82
21276;BME280;36472;52.170;20.884;2023-08-31T05:27:38;99625.38;;;17.68;99.30
21276;BME280;36472;52.170;20.884;2023-08-31T05:30:08;99633.50;;;17.67;99.82
21276;BME280;36472;52.170;20.884;2023-08-31T05:32:37;99643.47;;;17.73;100.00
21276;BME280;36472;52.170;20.884;2023-08-31T05:35:07;99640.47;;;17.68;99.50
21276;BME280;36472;52.170;20.884;2023-08-31T05:37:37;99641.97;;;17.70;98.88
21276;BME280;36472;52.170;20.884;2023-08-31T05:40:09;99654.28;;;17.71;98.51
21276;BME280;36472;52.170;20.884;2023-08-31T05:42:38;99652.94;;;17.67;98.09
21276;BME280;36472;52.170;20.884;2023-08-31T05:45:08;99657.59;;;17.73;98.31
21276;BME280;36472;52.170;20.884;2023-08-31T05:47:40;99662.59;;;17.76;96.82
21276;BME280;36472;52.170;20.884;2023-08-31T05:50:09;99654.78;;;17.83;97.17
21276;BME280;36472;52.170;20.884;2023-08-31T05:52:38;99646.16;;;17.89;95.89
21276;BME280;36472;52.170;20.884;2023-08-31T05:55:13;99663.13;;;17.88;93.79
21276;BME280;36472;52.170;20.884;2023-08-31T05:57:42;99668.09;;;17.91;91.97
21276;BME280;36472;52.170;20.884;2023-08-31T06:00:12;99678.38;;;17.86;90.30
21276;BME280;36472;52.170;20.884;2023-08-31T06:02:42;99680.06;;;17.87;90.69
21276;BME280;36472;52.170;20.884;2023-08-31T06:05:12;99680.19;;;17.86;90.14
21276;BME280;36472;52.170;20.884;2023-08-31T06:07:44;99677.75;;;17.92;91.75
21276;BME280;36472;52.170;20.884;2023-08-31T06:10:14;99680.41;;;17.92;89.05
21276;BME280;36472;52.170;20.884;2023-08-31T06:12:44;99677.25;;;17.89;88.31
21276;BME280;36472;52.170;20.884;2023-08-31T06:15:12;99687.53;;;17.92;88.36
21276;BME280;36472;52.170;20.884;2023-08-31T06:17:43;99689.03;;;17.94;87.85
21276;BME280;36472;52.170;20.884;2023-08-31T06:20:12;99684.53;;;17.95;87.85
21276;BME280;36472;52.170;20.884;2023-08-31T06:22:41;99685.38;;;17.96;87.43
21276;BME280;36472;52.170;20.884;2023-08-31T06:25:10;99689.19;;;18.01;86.97
21276;BME280;36472;52.170;20.884;2023-08-31T06:27:45;99694.53;;;18.01;86.72
21276;BME280;36472;52.170;20.884;2023-08-31T06:30:14;99693.53;;;18.02;87.19
21276;BME280;36472;52.170;20.884;2023-08-31T06:32:46;99699.19;;;17.99;87.52
21276;BME280;36472;52.170;20.884;2023-08-31T06:35:15;99698.34;;;17.99;87.64
21276;BME280;36472;52.170;20.884;2023-08-31T06:37:46;99700.00;;;18.00;87.55
21276;BME280;36472;52.170;20.884;2023-08-31T06:40:15;99695.84;;;17.97;86.89
21276;BME280;36472;52.170;20.884;2023-08-31T06:42:47;99689.38;;;18.08;87.29
21276;BME280;36472;52.170;20.884;2023-08-31T06:45:16;99692.69;;;18.18;85.99
21276;BME280;36472;52.170;20.884;2023-08-31T06:47:45;99690.38;;;18.23;86.66
21276;BME280;36472;52.170;20.884;2023-08-31T06:50:14;99706.16;;;18.25;85.25
21276;BME280;36472;52.170;20.884;2023-08-31T06:52:44;99694.00;;;18.30;82.53
21276;BME280;36472;52.170;20.884;2023-08-31T06:55:14;99702.69;;;18.24;83.00
21276;BME280;36472;52.170;20.884;2023-08-31T06:57:43;99702.66;;;18.32;83.11
21276;BME280;36472;52.170;20.884;2023-08-31T07:00:15;99709.78;;;18.57;84.00
21276;BME280;36472;52.170;20.884;2023-08-31T07:02:46;99702.59;;;18.74;81.39
21276;BME280;36472;52.170;20.884;2023-08-31T07:05:15;99708.22;;;18.95;81.99
21276;BME280;36472;52.170;20.884;2023-08-31T07:07:44;99710.56;;;18.98;80.64
21276;BME280;36472;52.170;20.884;2023-08-31T07:10:13;99709.72;;;18.98;80.30
21276;BME280;36472;52.170;20.884;2023-08-31T07:12:42;99713.88;;;19.00;81.38
21276;BME280;36472;52.170;20.884;2023-08-31T07:15:13;99710.03;;;19.03;83.10
21276;BME280;36472;52.170;20.884;2023-08-31T07:17:42;99710.03;;;19.03;81.11
21276;BME280;36472;52.170;20.884;2023-08-31T07:20:12;99708.50;;;19.09;79.97
21276;BME280;36472;52.170;20.884;2023-08-31T07:22:41;99718.19;;;19.10;78.20
21276;BME280;36472;52.170;20.884;2023-08-31T07:25:10;99716.16;;;19.12;77.74
21276;BME280;36472;52.170;20.884;2023-08-31T07:27:39;99723.41;;;19.26;76.11
21276;BME280;36472;52.170;20.884;2023-08-31T07:30:09;99722.47;;;19.19;76.92
21276;BME280;36472;52.170;20.884;2023-08-31T07:32:40;99723.56;;;19.33;75.75
21276;BME280;36472;52.170;20.884;2023-08-31T07:35:10;99729.13;;;19.54;77.83
21276;BME280;36472;52.170;20.884;2023-08-31T07:37:39;99731.38;;;19.66;74.83
21276;BME280;36472;52.170;20.884;2023-08-31T07:40:10;99733.56;;;19.62;71.84
21276;BME280;36472;52.170;20.884;2023-08-31T07:42:39;99732.50;;;19.40;72.38
21276;BME280;36472;52.170;20.884;2023-08-31T07:45:10;99735.78;;;19.50;75.32
21276;BME280;36472;52.170;20.884;2023-08-31T07:47:40;99734.84;;;19.74;73.31
21276;BME280;36472;52.170;20.884;2023-08-31T07:50:10;99728.91;;;19.95;71.72
21276;BME280;36472;52.170;20.884;2023-08-31T07:52:39;99738.63;;;19.88;71.39
21276;BME280;36472;52.170;20.884;2023-08-31T07:55:09;99731.31;;;20.05;70.35
21276;BME280;36472;52.170;20.884;2023-08-31T07:57:37;99733.47;;;20.10;69.57
21276;BME280;36472;52.170;20.884;2023-08-31T08:00:08;99739.31;;;20.28;67.72
21276;BME280;36472;52.170;20.884;2023-08-31T08:02:42;99749.88;;;20.22;66.21
21276;BME280;36472;52.170;20.884;2023-08-31T08:05:11;99753.31;;;20.30;69.09
21276;BME280;36472;52.170;20.884;2023-08-31T08:07:40;99756.66;;;20.47;67.39
21276;BME280;36472;52.170;20.884;2023-08-31T08:10:11;99762.28;;;20.52;66.98
21276;BME280;36472;52.170;20.884;2023-08-31T08:12:41;99751.63;;;20.52;65.14
21276;BME280;36472;52.170;20.884;2023-08-31T08:15:13;99755.22;;;20.60;65.34
21276;BME280;36472;52.170;20.884;2023-08-31T08:17:43;99751.56;;;20.61;63.97
21276;BME280;36472;52.170;20.884;2023-08-31T08:20:12;99756.97;;;20.76;64.41
21276;BME280;36472;52.170;20.884;2023-08-31T08:22:41;99758.16;;;20.88;65.06
21276;BME280;36472;52.170;20.884;2023-08-31T08:25:12;99757.41;;;20.94;62.36
21276;BME280;36472;52.170;20.884;2023-08-31T08:27:41;99762.03;;;21.15;61.40
21276;BME280;36472;52.170;20.884;2023-08-31T08:30:10;99768.38;;;21.29;65.21
21276;BME280;36472;52.170;20.884;2023-08-31T08:32:40;99765.31;;;21.62;62.61
21276;BME280;36472;52.170;20.884;2023-08-31T08:35:10;99766.22;;;21.69;61.98
21276;BME280;36472;52.170;20.884;2023-08-31T08:37:39;99768.09;;;21.69;61.31
21276;BME280;36472;52.170;20.884;2023-08-31T08:40:10;99776.38;;;21.74;62.34
21276;BME280;36472;52.170;20.884;2023-08-31T08:42:42;99774.78;;;21.79;61.92
21276;BME280;36472;52.170;20.884;2023-08-31T08:45:15;99776.00;;;21.77;60.51
21276;BME280;36472;52.170;20.884;2023-08-31T08:47:46;99775.72;;;21.72;59.66
21276;BME280;36472;52.170;20.884;2023-08-31T08:50:17;99778.53;;;21.48;60.73
21276;BME280;36472;52.170;20.884;2023-08-31T08:52:47;99777.94;;;21.38;62.49
21276;BME280;36472;52.170;20.884;2023-08-31T08:55:16;99777.03;;;21.31;62.19
21276;BME280;36472;52.170;20.884;2023-08-31T08:57:46;99779.91;;;21.44;63.43
21276;BME280;36472;52.170;20.884;2023-08-31T09:00:16;99782.69;;;21.51;61.69
21276;BME280;36472;52.170;20.884;2023-08-31T09:02:45;99786.91;;;21.60;60.88
21276;BME280;36472;52.170;20.884;2023-08-31T09:05:16;99783.22;;;21.61;60.37
21276;BME280;36472;52.170;20.884;2023-08-31T09:08:02;99787.16;;;21.65;61.13
21276;BME280;36472;52.170;20.884;2023-08-31T09:10:39;99791.03;;;21.78;62.73
21276;BME280;36472;52.170;20.884;2023-08-31T09:13:11;99786.75;;;21.98;62.99
21276;BME280;36472;52.170;20.884;2023-08-31T09:15:44;99799.84;;;22.15;59.21
21276;BME280;36472;52.170;20.884;2023-08-31T09:18:16;99788.09;;;22.31;61.00
21276;BME280;36472;52.170;20.884;2023-08-31T09:20:47;99786.03;;;22.54;58.05
21276;BME280;36472;52.170;20.884;2023-08-31T09:23:17;99785.53;;;22.66;56.64
21276;BME280;36472;52.170;20.884;2023-08-31T09:25:48;99790.69;;;22.67;57.25
21276;BME280;36472;52.170;20.884;2023-08-31T09:28:20;99794.72;;;22.85;55.88
21276;BME280;36472;52.170;20.884;2023-08-31T09:30:50;99795.84;;;22.69;56.80
21276;BME280;36472;52.170;20.884;2023-08-31T09:33:21;99799.63;;;22.53;62.31
21276;BME280;36472;52.170;20.884;2023-08-31T09:35:53;99794.91;;;22.83;56.70
21276;BME280;36472;52.170;20.884;2023-08-31T09:38:23;99798.47;;;22.62;56.51
21276;BME280;36472;52.170;20.884;2023-08-31T09:40:52;99786.97;;;22.96;55.60
21276;BME280;36472;52.170;20.884;2023-08-31T09:43:22;99803.41;;;22.87;55.70
21276;BME280;36472;52.170;20.884;2023-08-31T09:45:53;99799.25;;;23.12;57.73
21276;BME280;36472;52.170;20.884;2023-08-31T09:48:23;99796.81;;;23.52;56.59
21276;BME280;36472;52.170;20.884;2023-08-31T09:50:56;99795.44;;;23.70;58.58
21276;BME280;36472;52.170;20.884;2023-08-31T09:53:27;99801.69;;;23.84;55.69
21276;BME280;36472;52.170;20.884;2023-08-31T09:55:58;99809.41;;;23.59;57.48
21276;BME280;36472;52.170;20.884;2023-08-31T09:58:28;99813.41;;;23.34;58.99
21276;BME280;36472;52.170;20.884;2023-08-31T10:00:59;99809.03;;;23.20;56.50
21276;BME280;36472;52.170;20.884;2023-08-31T10:03:33;99821.38;;;23.14;57.28
21276;BME280;36472;52.170;20.884;2023-08-31T10:06:05;99820.28;;;23.44;55.76
21276;BME280;36472;52.170;20.884;2023-08-31T10:08:39;99819.97;;;23.67;54.61
21276;BME280;36472;52.170;20.884;2023-08-31T10:11:08;99818.56;;;24.33;52.84
21276;BME280;36472;52.170;20.884;2023-08-31T10:13:41;99819.44;;;24.67;52.10
21276;BME280;36472;52.170;20.884;2023-08-31T10:16:11;99816.97;;;24.72;51.28
21276;BME280;36472;52.170;20.884;2023-08-31T10:18:41;99811.34;;;24.46;50.27
21276;BME280;36472;52.170;20.884;2023-08-31T10:21:16;99816.00;;;24.04;50.89
21276;BME280;36472;52.170;20.884;2023-08-31T10:23:46;99815.47;;;23.67;51.63
21276;BME280;36472;52.170;20.884;2023-08-31T10:26:24;99819.34;;;23.65;52.97
21276;BME280;36472;52.170;20.884;2023-08-31T10:28:54;99812.72;;;23.54;54.06
21276;BME280;36472;52.170;20.884;2023-08-31T10:31:28;99812.06;;;23.45;54.00
21276;BME280;36472;52.170;20.884;2023-08-31T10:34:00;99813.56;;;23.26;54.53
21276;BME280;36472;52.170;20.884;2023-08-31T10:36:38;99804.63;;;23.12;54.50
21276;BME280;36472;52.170;20.884;2023-08-31T10:39:15;99818.22;;;23.11;55.75
21276;BME280;36472;52.170;20.884;2023-08-31T10:41:53;99829.41;;;23.14;57.89
21276;BME280;36472;52.170;20.884;2023-08-31T10:44:24;99821.13;;;23.09;57.17
21276;BME280;36472;52.170;20.884;2023-08-31T10:46:54;99820.94;;;23.18;56.57
21276;BME280;36472;52.170;20.884;2023-08-31T10:49:24;99816.78;;;23.08;55.22
21276;BME280;36472;52.170;20.884;2023-08-31T10:51:57;99819.06;;;23.11;56.31
21276;BME280;36472;52.170;20.884;2023-08-31T10:55:05;99830.31;;;23.28;55.85
21276;BME280;36472;52.170;20.884;2023-08-31T10:57:36;99827.81;;;23.27;58.27
21276;BME280;36472;52.170;20.884;2023-08-31T11:00:06;99822.56;;;23.47;56.15
21276;BME280;36472;52.170;20.884;2023-08-31T11:02:37;99830.00;;;23.86;55.28
21276;BME280;36472;52.170;20.884;2023-08-31T11:05:09;99822.03;;;24.26;51.79
21276;BME280;36472;52.170;20.884;2023-08-31T11:07:40;99826.81;;;24.31;50.59
21276;BME280;36472;52.170;20.884;2023-08-31T11:10:16;99820.16;;;24.20;51.21
21276;BME280;36472;52.170;20.884;2023-08-31T11:12:48;99822.25;;;24.32;51.04
21276;BME280;36472;52.170;20.884;2023-08-31T11:15:19;99824.16;;;24.64;50.76
21276;BME280;36472;52.170;20.884;2023-08-31T11:17:50;99826.00;;;24.51;50.50
21276;BME280;36472;52.170;20.884;2023-08-31T11:20:22;99831.41;;;24.84;51.44
21276;BME280;36472;52.170;20.884;2023-08-31T11:22:58;99827.25;;;25.08;48.46
21276;BME280;36472;52.170;20.884;2023-08-31T11:25:31;99827.25;;;25.22;48.61
21276;BME280;36472;52.170;20.884;2023-08-31T11:28:01;99831.97;;;25.33;48.18
21276;BME280;36472;52.170;20.884;2023-08-31T11:30:33;99832.53;;;25.55;47.71
21276;BME280;36472;52.170;20.884;2023-08-31T11:33:05;99825.88;;;25.71;49.17
21276;BME280;36472;52.170;20.884;2023-08-31T11:35:37;99833.03;;;25.97;48.33
21276;BME280;36472;52.170;20.884;2023-08-31T11:38:09;99834.25;;;26.01;46.83
21276;BME280;36472;52.170;20.884;2023-08-31T11:40:38;99831.16;;;25.98;46.90
21276;BME280;36472;52.170;20.884;2023-08-31T11:43:08;99826.97;;;26.08;46.52
21276;BME280;36472;52.170;20.884;2023-08-31T11:45:39;99826.25;;;25.81;46.78
21276;BME280;36472;52.170;20.884;2023-08-31T11:48:09;99818.97;;;25.95;47.76
21276;BME280;36472;52.170;20.884;2023-08-31T11:50:39;99821.09;;;26.18;46.17
21276;BME280;36472;52.170;20.884;2023-08-31T11:53:11;99822.72;;;25.81;47.31
21276;BME280;36472;52.170;20.884;2023-08-31T11:55:50;99825.94;;;25.51;48.14
21276;BME280;36472;52.170;20.884;2023-08-31T11:58:21;99811.94;;;25.15;48.69
21276;BME280;36472;52.170;20.884;2023-08-31T12:00:57;99821.28;;;24.93;49.52
21276;BME280;36472;52.170;20.884;2023-08-31T12:03:28;99809.72;;;24.66;52.14
21276;BME280;36472;52.170;20.884;2023-08-31T12:06:17;99819.00;;;24.63;52.50
21276;BME280;36472;52.170;20.884;2023-08-31T12:08:49;99812.59;;;24.57;53.59
21276;BME280;36472;52.170;20.884;2023-08-31T12:11:19;99817.09;;;24.43;51.02
21276;BME280;36472;52.170;20.884;2023-08-31T12:13:50;99814.19;;;24.32;50.27
21276;BME280;36472;52.170;20.884;2023-08-31T12:16:19;99807.59;;;24.27;51.50
21276;BME280;36472;52.170;20.884;2023-08-31T12:18:48;99801.00;;;24.43;53.63
21276;BME280;36472;52.170;20.884;2023-08-31T12:21:19;99803.91;;;24.49;52.65
21276;BME280;36472;52.170;20.884;2023-08-31T12:23:50;99801.47;;;24.60;52.71
21276;BME280;36472;52.170;20.884;2023-08-31T12:26:19;99802.03;;;24.42;51.50
21276;BME280;36472;52.170;20.884;2023-08-31T12:28:48;99804.50;;;24.24;53.31
21276;BME280;36472;52.170;20.884;2023-08-31T12:31:17;99791.66;;;24.06;55.10
21276;BME280;36472;52.170;20.884;2023-08-31T12:33:46;99792.06;;;24.03;53.69
21276;BME280;36472;52.170;20.884;2023-08-31T12:36:15;99794.91;;;23.95;52.13
21276;BME280;36472;52.170;20.884;2023-08-31T12:38:44;99783.75;;;23.91;52.86
21276;BME280;36472;52.170;20.884;2023-08-31T12:41:16;99791.63;;;23.93;51.53
21276;BME280;36472;52.170;20.884;2023-08-31T12:43:45;99793.28;;;23.94;52.64
21276;BME280;36472;52.170;20.884;2023-08-31T12:46:15;99791.19;;;23.89;53.51
21276;BME280;36472;52.170;20.884;2023-08-31T12:48:44;99790.59;;;23.94;55.12
21276;BME280;36472;52.170;20.884;2023-08-31T12:51:13;99787.91;;;23.94;52.45
21276;BME280;36472;52.170;20.884;2023-08-31T12:53:42;99784.84;;;23.97;52.77
21276;BME280;36472;52.170;20.884;2023-08-31T12:56:15;99781.09;;;23.98;53.10
21276;BME280;36472;52.170;20.884;2023-08-31T12:58:50;99777.63;;;24.04;54.62
21276;BME280;36472;52.170;20.884;2023-08-31T13:01:20;99783.00;;;24.11;52.00
21276;BME280;36472;52.170;20.884;2023-08-31T13:03:50;99775.75;;;24.04;50.88